Time;durP1;ratioP1;P1;durP2;ratioP2;P2;SDS_P1;SDS_P2;PMS_P1;PMS_P2;Temp;Humidity;BMP_temperature;BMP_pressure;BME280_temperature;BME280_humidity;BME280_pressure;Samples;Min_cycle;Max_cycle;Signal;HPM_P1;HPM_P2
2021/07/16 00:01:19;;;;;;;33.10;22.35;;;;;;;;;;5013416;28;20041;-55
2021/07/16 00:03:45;;;;;;;29.77;21.10;;;;;;;;;;5011497;28;21013;-54
2021/07/16 00:06:11;;;;;;;31.55;21.02;;;;;;;;;;5009881;28;20092;-55
2021/07/16 00:08:37;;;;;;;34.10;22.45;;;;;;;;;;5009877;28;20041;-54
2021/07/16 00:11:02;;;;;;;36.33;21.65;;;;;;;;;;5011274;28;20046;-58
2021/07/16 00:13:28;;;;;;;32.92;21.63;;;;;;;;;;5008734;28;20270;-51
2021/07/16 00:15:54;;;;;;;31.55;21.55;;;;;;;;;;5009286;28;20038;-53
2021/07/16 00:18:20;;;;;;;32.55;21.20;;;;;;;;;;5010776;28;20501;-53
2021/07/16 00:20:47;;;;;;;32.25;22.15;;;;;;;;;;5011876;28;20052;-54
2021/07/16 00:23:13;;;;;;;32.60;22.20;;;;;;;;;;5009751;28;20052;-55
2021/07/16 00:25:39;;;;;;;33.15;22.48;;;;;;;;;;5007685;28;20038;-55
2021/07/16 00:28:05;;;;;;;32.33;22.17;;;;;;;;;;5009713;28;20049;-53
2021/07/16 00:30:31;;;;;;;32.10;21.73;;;;;;;;;;5009335;28;20069;-54
2021/07/16 00:32:56;;;;;;;35.72;21.60;;;;;;;;;;5009070;28;20143;-55
2021/07/16 00:35:22;;;;;;;33.50;22.83;;;;;;;;;;5000489;28;20054;-55
2021/07/16 00:37:48;;;;;;;31.55;21.88;;;;;;;;;;5023064;28;20177;-55
2021/07/16 00:40:14;;;;;;;35.08;23.13;;;;;;;;;;5012434;28;20506;-53
2021/07/16 00:42:41;;;;;;;37.58;22.65;;;;;;;;;;5008979;28;20042;-55
2021/07/16 00:45:11;;;;;;;33.03;22.42;;;;;;;;;;5008626;28;20045;-56
2021/07/16 00:47:37;;;;;;;32.83;23.55;;;;;;;;;;5008965;28;20037;-53
2021/07/16 00:50:06;;;;;;;32.38;22.33;;;;;;;;;;5009589;28;20048;-55
2021/07/16 00:52:31;;;;;;;34.55;22.02;;;;;;;;;;5008813;28;20038;-52
2021/07/16 00:54:57;;;;;;;32.08;21.98;;;;;;;;;;5009083;28;20077;-55
2021/07/16 00:57:23;;;;;;;30.33;22.13;;;;;;;;;;5010949;28;20968;-54
2021/07/16 00:59:49;;;;;;;36.85;23.92;;;;;;;;;;5009306;28;20044;-55
2021/07/16 01:02:15;;;;;;;33.63;23.27;;;;;;;;;;5008502;28;20145;-55
2021/07/16 01:04:41;;;;;;;33.72;21.60;;;;;;;;;;5008095;28;20046;-54
2021/07/16 01:07:07;;;;;;;42.08;24.55;;;;;;;;;;5008485;28;20091;-53
2021/07/16 01:09:33;;;;;;;35.13;24.23;;;;;;;;;;5008149;28;20180;-55
2021/07/16 01:11:59;;;;;;;36.70;24.55;;;;;;;;;;5008298;28;20111;-54
2021/07/16 01:14:25;;;;;;;38.65;25.92;;;;;;;;;;5007688;28;20710;-55
2021/07/16 01:16:51;;;;;;;38.55;25.77;;;;;;;;;;5008093;28;20038;-55
2021/07/16 01:19:25;;;;;;;41.65;26.35;;;;;;;;;;5010855;28;20045;-55
2021/07/16 01:21:51;;;;;;;45.22;26.60;;;;;;;;;;5008193;28;20064;-54
2021/07/16 01:24:17;;;;;;;48.88;26.73;;;;;;;;;;5007167;28;21908;-54
2021/07/16 01:26:43;;;;;;;37.67;25.55;;;;;;;;;;5007477;28;20418;-51
2021/07/16 01:29:12;;;;;;;38.95;25.60;;;;;;;;;;5009174;28;20112;-52
2021/07/16 01:31:40;;;;;;;48.38;27.13;;;;;;;;;;5006770;28;20045;-52
2021/07/16 01:34:06;;;;;;;39.92;26.38;;;;;;;;;;5007674;28;20061;-53
2021/07/16 01:36:32;;;;;;;42.72;27.83;;;;;;;;;;5006450;28;20060;-54
2021/07/16 01:38:58;;;;;;;38.10;25.33;;;;;;;;;;5007512;28;20054;-53
2021/07/16 01:41:23;;;;;;;42.83;27.15;;;;;;;;;;5007907;28;20256;-54
2021/07/16 01:43:49;;;;;;;49.22;29.05;;;;;;;;;;5008139;28;20426;-51
2021/07/16 01:46:15;;;;;;;45.38;25.42;;;;;;;;;;5008150;28;20052;-53
2021/07/16 01:48:42;;;;;;;41.70;26.27;;;;;;;;;;5007412;28;20041;-55
2021/07/16 01:51:07;;;;;;;48.00;27.13;;;;;;;;;;5008216;28;20066;-54
2021/07/16 01:53:33;;;;;;;51.30;27.30;;;;;;;;;;5008914;28;20041;-55
2021/07/16 01:55:59;;;;;;;48.50;28.02;;;;;;;;;;5008582;28;20029;-52
2021/07/16 01:58:25;;;;;;;43.20;27.08;;;;;;;;;;5007647;28;20053;-51
2021/07/16 02:00:51;;;;;;;49.15;28.20;;;;;;;;;;5010391;28;20038;-54
2021/07/16 02:03:17;;;;;;;46.05;26.65;;;;;;;;;;5008361;28;20206;-52
2021/07/16 02:05:44;;;;;;;43.22;27.38;;;;;;;;;;5006685;28;20052;-55
2021/07/16 02:08:14;;;;;;;47.25;26.17;;;;;;;;;;5009938;28;20049;-52
2021/07/16 02:10:42;;;;;;;37.60;26.05;;;;;;;;;;5006768;28;20060;-51
2021/07/16 02:13:07;;;;;;;44.70;25.10;;;;;;;;;;5007758;28;21007;-52
2021/07/16 02:15:35;;;;;;;42.88;26.00;;;;;;;;;;5006567;28;20140;-55
2021/07/16 02:18:01;;;;;;;49.50;25.38;;;;;;;;;;5006517;28;20615;-53
2021/07/16 02:20:28;;;;;;;38.78;23.80;;;;;;;;;;5007509;28;20046;-54
2021/07/16 02:22:56;;;;;;;39.03;23.92;;;;;;;;;;5008669;28;20081;-53
2021/07/16 02:25:22;;;;;;;36.05;22.95;;;;;;;;;;5007480;28;20379;-53
2021/07/16 02:27:49;;;;;;;41.30;23.88;;;;;;;;;;5007869;28;20139;-52
2021/07/16 02:30:16;;;;;;;37.95;24.15;;;;;;;;;;5003834;28;20102;-55
2021/07/16 02:32:42;;;;;;;36.83;23.70;;;;;;;;;;5010189;28;20063;-55
2021/07/16 02:35:08;;;;;;;35.88;22.33;;;;;;;;;;5006879;28;20054;-51
2021/07/16 02:37:35;;;;;;;43.65;23.83;;;;;;;;;;5006483;28;20453;-55
2021/07/16 02:40:01;;;;;;;33.90;22.05;;;;;;;;;;5007259;28;20037;-54
2021/07/16 02:42:26;;;;;;;41.05;24.17;;;;;;;;;;5007683;28;20083;-53
2021/07/16 02:44:52;;;;;;;37.65;21.55;;;;;;;;;;5005890;28;20038;-55
2021/07/16 02:47:18;;;;;;;39.63;22.05;;;;;;;;;;5005836;28;20056;-51
2021/07/16 02:49:46;;;;;;;35.03;21.52;;;;;;;;;;5008351;28;20053;-53
2021/07/16 02:52:12;;;;;;;34.35;22.15;;;;;;;;;;5008107;28;20060;-54
2021/07/16 02:54:38;;;;;;;32.58;21.55;;;;;;;;;;5006096;28;20045;-55
2021/07/16 02:57:04;;;;;;;41.15;22.20;;;;;;;;;;5006929;28;20054;-54
2021/07/16 02:59:29;;;;;;;36.47;21.02;;;;;;;;;;5006242;28;20038;-55
2021/07/16 03:01:56;;;;;;;41.95;21.70;;;;;;;;;;5007938;28;20060;-53
2021/07/16 03:04:22;;;;;;;35.47;21.77;;;;;;;;;;5006347;28;20041;-55
2021/07/16 03:06:48;;;;;;;33.55;20.17;;;;;;;;;;5009174;28;20111;-54
2021/07/16 03:09:14;;;;;;;35.70;20.63;;;;;;;;;;5007080;28;20122;-57
2021/07/16 03:11:40;;;;;;;41.30;21.80;;;;;;;;;;5008221;28;20486;-54
2021/07/16 03:14:06;;;;;;;41.08;20.55;;;;;;;;;;5008208;28;20562;-52
2021/07/16 03:16:32;;;;;;;34.05;20.65;;;;;;;;;;5006823;28;20099;-55
2021/07/16 03:18:58;;;;;;;34.53;20.42;;;;;;;;;;5009692;28;20897;-54
2021/07/16 03:21:24;;;;;;;40.45;20.38;;;;;;;;;;5010923;28;20068;-54
2021/07/16 03:23:50;;;;;;;38.17;20.52;;;;;;;;;;5010007;28;20049;-55
2021/07/16 03:26:16;;;;;;;33.15;20.05;;;;;;;;;;5012444;28;20038;-55
2021/07/16 03:28:42;;;;;;;34.50;21.05;;;;;;;;;;5010931;28;20999;-55
2021/07/16 03:31:08;;;;;;;34.88;20.73;;;;;;;;;;5011891;28;20139;-52
2021/07/16 03:33:34;;;;;;;37.35;21.00;;;;;;;;;;5011646;28;20132;-53
2021/07/16 03:36:00;;;;;;;33.35;20.15;;;;;;;;;;5009743;28;20041;-54
2021/07/16 03:38:25;;;;;;;42.97;21.42;;;;;;;;;;5010283;28;20096;-55
2021/07/16 03:40:57;;;;;;;39.38;20.95;;;;;;;;;;5010488;28;20426;-54
2021/07/16 03:43:22;;;;;;;33.70;21.13;;;;;;;;;;5009178;28;20092;-54
2021/07/16 03:45:48;;;;;;;31.05;19.45;;;;;;;;;;5010483;28;20045;-52
2021/07/16 03:48:14;;;;;;;38.33;20.52;;;;;;;;;;5010594;28;20482;-55
2021/07/16 03:50:40;;;;;;;31.50;19.25;;;;;;;;;;5009638;28;20061;-53
2021/07/16 03:53:06;;;;;;;40.63;19.42;;;;;;;;;;5012147;28;20410;-55
2021/07/16 03:55:32;;;;;;;35.22;19.77;;;;;;;;;;5010020;28;20160;-54
2021/07/16 03:57:58;;;;;;;35.63;20.30;;;;;;;;;;5007714;28;20029;-55
2021/07/16 04:00:29;;;;;;;33.25;20.67;;;;;;;;;;5009752;28;20040;-52
2021/07/16 04:02:58;;;;;;;33.42;20.05;;;;;;;;;;5010036;28;20048;-52
2021/07/16 04:05:24;;;;;;;35.17;21.08;;;;;;;;;;5010289;28;20037;-55
2021/07/16 04:07:51;;;;;;;47.53;23.25;;;;;;;;;;5010965;28;20065;-52
2021/07/16 04:10:18;;;;;;;41.30;23.98;;;;;;;;;;5012410;28;20080;-55
2021/07/16 04:13:04;;;;;;;38.53;24.48;;;;;;;;;;5011948;28;20130;-54
2021/07/16 04:15:30;;;;;;;44.13;23.63;;;;;;;;;;5009716;28;20041;-54
2021/07/16 04:17:56;;;;;;;43.53;24.73;;;;;;;;;;5010282;28;20041;-52
2021/07/16 04:20:23;;;;;;;49.28;27.00;;;;;;;;;;5007230;28;20084;-55
2021/07/16 04:22:49;;;;;;;51.65;29.10;;;;;;;;;;5009914;28;20034;-54
2021/07/16 04:25:17;;;;;;;47.65;26.95;;;;;;;;;;5009206;28;20037;-55
2021/07/16 04:27:47;;;;;;;56.83;28.85;;;;;;;;;;5008269;28;20095;-54
2021/07/16 04:30:14;;;;;;;51.85;29.70;;;;;;;;;;5012297;28;20037;-55
2021/07/16 04:32:40;;;;;;;50.10;29.27;;;;;;;;;;5011053;28;20218;-54
2021/07/16 04:35:06;;;;;;;47.80;29.63;;;;;;;;;;5009063;28;20064;-55
2021/07/16 04:37:34;;;;;;;52.42;31.55;;;;;;;;;;5009764;28;20060;-54
2021/07/16 04:40:00;;;;;;;50.90;30.42;;;;;;;;;;5008641;28;20081;-54
2021/07/16 04:42:25;;;;;;;52.08;30.50;;;;;;;;;;5010221;28;20121;-55
2021/07/16 04:44:51;;;;;;;52.85;30.17;;;;;;;;;;5010898;28;20056;-55
2021/07/16 04:47:17;;;;;;;56.15;32.28;;;;;;;;;;5012616;28;20097;-54
2021/07/16 04:49:43;;;;;;;62.00;34.85;;;;;;;;;;5009550;28;20167;-54
2021/07/16 04:52:09;;;;;;;60.05;35.55;;;;;;;;;;5011491;28;20047;-55
2021/07/16 04:54:34;;;;;;;62.78;37.10;;;;;;;;;;5009961;28;20058;-52
2021/07/16 04:57:11;;;;;;;67.10;37.15;;;;;;;;;;5010509;28;20034;-55
2021/07/16 04:59:37;;;;;;;66.68;40.78;;;;;;;;;;5010408;28;20030;-53
2021/07/16 05:02:04;;;;;;;69.90;41.20;;;;;;;;;;5010285;28;20038;-53
2021/07/16 05:04:29;;;;;;;68.18;39.53;;;;;;;;;;5010239;28;20585;-54
2021/07/16 05:06:55;;;;;;;73.72;43.00;;;;;;;;;;5010462;28;20046;-52
2021/07/16 05:09:23;;;;;;;76.45;43.45;;;;;;;;;;5010006;28;20495;-55
2021/07/16 05:11:49;;;;;;;82.68;43.22;;;;;;;;;;5011190;28;20045;-53
2021/07/16 05:14:15;;;;;;;75.57;42.85;;;;;;;;;;5011075;28;20052;-52
2021/07/16 05:16:40;;;;;;;75.45;42.63;;;;;;;;;;5009183;28;20441;-54
2021/07/16 05:19:06;;;;;;;79.00;40.90;;;;;;;;;;5009759;28;20565;-51
2021/07/16 05:21:33;;;;;;;74.00;42.45;;;;;;;;;;5010697;28;20113;-51
2021/07/16 05:23:59;;;;;;;70.25;40.45;;;;;;;;;;5009400;28;20607;-53
2021/07/16 05:26:24;;;;;;;69.30;39.80;;;;;;;;;;5010149;28;20156;-54
2021/07/16 05:28:50;;;;;;;57.78;34.55;;;;;;;;;;5009072;28;20048;-54
2021/07/16 05:31:17;;;;;;;70.63;39.35;;;;;;;;;;5007893;28;20122;-55
2021/07/16 05:33:43;;;;;;;73.60;39.53;;;;;;;;;;5010874;28;20038;-53
2021/07/16 05:36:09;;;;;;;70.50;37.53;;;;;;;;;;5009351;28;20068;-52
2021/07/16 05:38:37;;;;;;;64.20;36.72;;;;;;;;;;5011644;28;20034;-54
2021/07/16 05:41:02;;;;;;;65.65;37.28;;;;;;;;;;5010960;28;20050;-55
2021/07/16 05:43:28;;;;;;;62.83;35.60;;;;;;;;;;5012138;28;20474;-54
2021/07/16 05:45:54;;;;;;;69.97;38.53;;;;;;;;;;5014966;28;20993;-55
2021/07/16 05:48:21;;;;;;;73.57;40.22;;;;;;;;;;5011585;28;20042;-53
2021/07/16 05:50:50;;;;;;;72.13;39.95;;;;;;;;;;5010223;28;20061;-55
2021/07/16 05:53:17;;;;;;;67.28;39.42;;;;;;;;;;5012019;28;20168;-54
2021/07/16 05:55:42;;;;;;;72.40;41.85;;;;;;;;;;5010896;28;20045;-52
2021/07/16 05:58:08;;;;;;;73.07;41.97;;;;;;;;;;5009763;28;20046;-55
2021/07/16 06:00:35;;;;;;;70.72;42.17;;;;;;;;;;5009176;28;20034;-52
2021/07/16 06:03:01;;;;;;;75.13;41.47;;;;;;;;;;5010735;28;20111;-54
2021/07/16 06:05:27;;;;;;;69.07;40.88;;;;;;;;;;5009009;28;20120;-53
2021/07/16 06:07:53;;;;;;;78.30;41.70;;;;;;;;;;5010468;28;20045;-53
2021/07/16 06:10:19;;;;;;;74.35;43.20;;;;;;;;;;5009120;28;20072;-54
2021/07/16 06:12:45;;;;;;;70.70;42.33;;;;;;;;;;5009966;28;20113;-54
2021/07/16 06:15:11;;;;;;;70.40;40.15;;;;;;;;;;5009005;28;20049;-56
2021/07/16 06:17:37;;;;;;;78.72;42.63;;;;;;;;;;5007918;28;20461;-57
2021/07/16 06:20:05;;;;;;;74.97;41.60;;;;;;;;;;5009104;28;20037;-55
2021/07/16 06:22:31;;;;;;;75.03;41.03;;;;;;;;;;5009655;28;20088;-51
2021/07/16 06:24:57;;;;;;;69.60;41.55;;;;;;;;;;5009072;28;20040;-52
2021/07/16 06:27:23;;;;;;;76.40;42.00;;;;;;;;;;5010759;28;20052;-55
2021/07/16 06:29:49;;;;;;;74.15;41.58;;;;;;;;;;5009053;28;20057;-55
2021/07/16 06:32:14;;;;;;;72.47;41.08;;;;;;;;;;5005189;28;20048;-52
2021/07/16 06:34:40;;;;;;;72.53;40.85;;;;;;;;;;5008428;28;20073;-53
2021/07/16 06:37:06;;;;;;;70.50;40.40;;;;;;;;;;5009509;28;20045;-52
2021/07/16 06:39:32;;;;;;;72.88;39.85;;;;;;;;;;5004417;28;20044;-53
2021/07/16 06:41:58;;;;;;;74.95;42.33;;;;;;;;;;5007746;28;20049;-54
2021/07/16 06:44:23;;;;;;;67.57;39.50;;;;;;;;;;5006765;28;20530;-55
2021/07/16 06:46:49;;;;;;;69.40;39.05;;;;;;;;;;5022538;28;20476;-53
2021/07/16 06:49:15;;;;;;;66.25;40.33;;;;;;;;;;5008346;28;20064;-55
2021/07/16 06:51:41;;;;;;;75.55;42.08;;;;;;;;;;5007815;28;20038;-52
2021/07/16 06:54:07;;;;;;;64.35;37.25;;;;;;;;;;5012522;28;20049;-55
2021/07/16 06:56:35;;;;;;;69.03;38.88;;;;;;;;;;5013454;28;20033;-51
2021/07/16 06:59:01;;;;;;;68.60;40.08;;;;;;;;;;5012757;28;20133;-54
2021/07/16 07:01:26;;;;;;;61.92;34.53;;;;;;;;;;5012421;28;20512;-54
2021/07/16 07:03:53;;;;;;;65.40;37.15;;;;;;;;;;5013038;28;20363;-53
2021/07/16 07:06:19;;;;;;;61.10;37.28;;;;;;;;;;5011806;28;20030;-55
2021/07/16 07:08:45;;;;;;;58.22;35.00;;;;;;;;;;5012602;28;20608;-54
2021/07/16 07:11:10;;;;;;;63.72;31.75;;;;;;;;;;5011561;28;20439;-53
2021/07/16 07:13:36;;;;;;;57.15;34.40;;;;;;;;;;5010861;28;20061;-54
2021/07/16 07:16:02;;;;;;;64.22;35.70;;;;;;;;;;5025423;28;20042;-55
2021/07/16 07:18:28;;;;;;;63.40;35.95;;;;;;;;;;5011357;28;20041;-55
2021/07/16 07:20:54;;;;;;;69.90;36.17;;;;;;;;;;5012258;28;20042;-53
2021/07/16 07:23:20;;;;;;;59.72;35.10;;;;;;;;;;5013582;28;20042;-54
2021/07/16 07:25:47;;;;;;;52.50;30.80;;;;;;;;;;5011869;28;20501;-54
2021/07/16 07:28:12;;;;;;;53.47;31.42;;;;;;;;;;5013277;28;20095;-55
2021/07/16 07:30:38;;;;;;;49.95;29.92;;;;;;;;;;5012761;28;20042;-55
2021/07/16 07:33:04;;;;;;;61.50;35.42;;;;;;;;;;5013443;28;20570;-54
2021/07/16 07:35:32;;;;;;;62.25;33.97;;;;;;;;;;5012309;28;20061;-53
2021/07/16 07:37:59;;;;;;;63.42;35.05;;;;;;;;;;5013143;28;20063;-52
2021/07/16 07:40:25;;;;;;;58.75;36.15;;;;;;;;;;5014486;28;20593;-52
2021/07/16 07:42:51;;;;;;;62.63;35.83;;;;;;;;;;5013114;28;20046;-53
2021/07/16 07:45:17;;;;;;;51.90;33.10;;;;;;;;;;5011941;28;20045;-51
2021/07/16 07:47:43;;;;;;;58.58;35.13;;;;;;;;;;5012845;28;20694;-54
2021/07/16 07:50:13;;;;;;;52.95;31.60;;;;;;;;;;5014504;28;20101;-55
2021/07/16 07:52:39;;;;;;;59.85;34.63;;;;;;;;;;5010991;28;20049;-55
2021/07/16 07:55:05;;;;;;;55.35;33.47;;;;;;;;;;5010862;28;20050;-52
2021/07/16 07:57:31;;;;;;;59.75;34.78;;;;;;;;;;5013154;28;20038;-53
2021/07/16 07:59:57;;;;;;;62.72;34.55;;;;;;;;;;5011499;28;20580;-52
2021/07/16 08:02:22;;;;;;;58.38;35.03;;;;;;;;;;5012443;28;20033;-55
2021/07/16 08:04:48;;;;;;;54.63;33.95;;;;;;;;;;5011340;28;20178;-54
2021/07/16 08:07:14;;;;;;;56.72;33.30;;;;;;;;;;5011230;28;20128;-55
2021/07/16 08:09:40;;;;;;;57.92;34.00;;;;;;;;;;5012150;28;20951;-53
2021/07/16 08:12:06;;;;;;;59.83;34.50;;;;;;;;;;5013052;28;20047;-52
2021/07/16 08:14:32;;;;;;;60.33;32.42;;;;;;;;;;5009667;28;20848;-55
2021/07/16 08:16:58;;;;;;;51.85;31.88;;;;;;;;;;5011150;28;20053;-52
2021/07/16 08:19:24;;;;;;;47.28;29.10;;;;;;;;;;5011485;28;20052;-56
2021/07/16 08:21:54;;;;;;;54.55;32.60;;;;;;;;;;5011277;28;20041;-53
2021/07/16 08:24:21;;;;;;;58.13;34.75;;;;;;;;;;5011279;28;20045;-54
2021/07/16 08:26:47;;;;;;;54.60;32.13;;;;;;;;;;5012185;28;20041;-55
2021/07/16 08:29:13;;;;;;;56.03;33.33;;;;;;;;;;5013250;28;20033;-53
2021/07/16 08:31:39;;;;;;;52.15;31.63;;;;;;;;;;5009844;28;20044;-53
2021/07/16 08:34:06;;;;;;;51.65;31.30;;;;;;;;;;5012373;28;20407;-52
2021/07/16 08:36:34;;;;;;;58.97;31.50;;;;;;;;;;5010813;28;20113;-54
2021/07/16 08:39:00;;;;;;;52.40;30.42;;;;;;;;;;5025868;28;20073;-54
2021/07/16 08:41:26;;;;;;;51.95;32.58;;;;;;;;;;5010015;28;20474;-55
2021/07/16 08:43:52;;;;;;;53.30;31.95;;;;;;;;;;5008201;28;20048;-53
2021/07/16 08:46:18;;;;;;;56.45;32.78;;;;;;;;;;5010256;28;20048;-54
2021/07/16 08:48:47;;;;;;;52.13;31.65;;;;;;;;;;5009592;28;20065;-59
2021/07/16 08:51:22;;;;;;;54.35;31.77;;;;;;;;;;5010318;28;20173;-56
2021/07/16 08:53:51;;;;;;;55.55;32.72;;;;;;;;;;5010548;28;20120;-56
2021/07/16 08:56:17;;;;;;;55.17;31.85;;;;;;;;;;5008312;28;20083;-61
2021/07/16 08:58:43;;;;;;;57.67;34.17;;;;;;;;;;5011547;28;20034;-55
2021/07/16 09:01:09;;;;;;;60.63;34.22;;;;;;;;;;5010918;28;20053;-56
2021/07/16 09:03:37;;;;;;;58.72;32.30;;;;;;;;;;5011509;28;20069;-56
2021/07/16 09:06:05;;;;;;;51.17;32.55;;;;;;;;;;5011007;28;20046;-57
2021/07/16 09:08:31;;;;;;;57.67;33.33;;;;;;;;;;5011180;28;20050;-58
2021/07/16 09:10:58;;;;;;;54.80;32.25;;;;;;;;;;5013255;28;20100;-57
2021/07/16 09:13:26;;;;;;;57.08;32.38;;;;;;;;;;5009344;28;20034;-56
2021/07/16 09:15:51;;;;;;;55.30;33.40;;;;;;;;;;5010251;28;20044;-55
2021/07/16 09:18:30;;;;;;;67.40;33.85;;;;;;;;;;5009832;28;20556;-55
2021/07/16 09:21:02;;;;;;;55.28;33.10;;;;;;;;;;5011130;28;20045;-55
2021/07/16 09:23:35;;;;;;;54.83;32.50;;;;;;;;;;5008778;28;20038;-56
2021/07/16 09:26:07;;;;;;;59.55;33.75;;;;;;;;;;5010501;28;20768;-56
2021/07/16 09:28:33;;;;;;;58.67;33.47;;;;;;;;;;5009554;28;20583;-58
2021/07/16 09:31:17;;;;;;;60.00;34.58;;;;;;;;;;5009774;28;20034;-54
2021/07/16 09:33:50;;;;;;;63.15;34.92;;;;;;;;;;5008475;28;20198;-56
2021/07/16 09:36:53;;;;;;;56.08;33.78;;;;;;;;;;5010637;28;20566;-57
2021/07/16 09:39:20;;;;;;;62.05;33.95;;;;;;;;;;4944672;28;20105;-56
2021/07/16 09:41:51;;;;;;;60.20;34.25;;;;;;;;;;4997176;28;20049;-57
2021/07/16 09:44:27;;;;;;;66.70;36.45;;;;;;;;;;5010888;28;20068;-55
2021/07/16 09:47:07;;;;;;;65.38;35.15;;;;;;;;;;5008079;28;20064;-55
2021/07/16 09:49:33;;;;;;;64.65;36.00;;;;;;;;;;5007556;28;20053;-56
2021/07/16 09:52:19;;;;;;;60.90;34.38;;;;;;;;;;5008945;28;20060;-53
2021/07/16 09:55:04;;;;;;;61.63;35.35;;;;;;;;;;5006324;28;20058;-54
2021/07/16 09:57:39;;;;;;;59.95;33.47;;;;;;;;;;5009421;28;20046;-55
2021/07/16 10:00:17;;;;;;;65.35;36.13;;;;;;;;;;5009803;28;20059;-55
2021/07/16 10:02:44;;;;;;;70.72;36.90;;;;;;;;;;5021671;28;20042;-56
2021/07/16 10:05:11;;;;;;;65.05;34.47;;;;;;;;;;5006722;28;20041;-56
2021/07/16 10:07:37;;;;;;;62.17;34.17;;;;;;;;;;5008112;28;20042;-55
2021/07/16 10:10:03;;;;;;;59.92;36.28;;;;;;;;;;5009360;28;20041;-55
2021/07/16 10:12:30;;;;;;;65.40;36.15;;;;;;;;;;5008214;28;20037;-55
2021/07/16 10:14:56;;;;;;;64.90;37.20;;;;;;;;;;5006596;28;20053;-51
2021/07/16 10:17:22;;;;;;;71.78;36.47;;;;;;;;;;5008635;28;20068;-57
2021/07/16 10:19:50;;;;;;;58.60;35.10;;;;;;;;;;5009957;28;22009;-56
2021/07/16 10:22:16;;;;;;;60.80;34.65;;;;;;;;;;5009939;28;20316;-58
2021/07/16 10:24:43;;;;;;;70.10;37.47;;;;;;;;;;5007340;28;20034;-55
2021/07/16 10:27:09;;;;;;;67.50;36.25;;;;;;;;;;5007788;28;20052;-55
2021/07/16 10:29:42;;;;;;;74.13;37.75;;;;;;;;;;5006922;28;20038;-55
2021/07/16 10:32:08;;;;;;;71.07;36.70;;;;;;;;;;5009834;28;20522;-55
2021/07/16 10:34:35;;;;;;;74.10;38.33;;;;;;;;;;5006630;28;20053;-55
2021/07/16 10:37:03;;;;;;;67.40;37.13;;;;;;;;;;5008059;28;20038;-55
2021/07/16 10:39:39;;;;;;;74.95;37.65;;;;;;;;;;5008874;28;20410;-53
2021/07/16 10:42:44;;;;;;;67.55;38.20;;;;;;;;;;5009047;28;20061;-54
2021/07/16 10:45:10;;;;;;;65.47;37.15;;;;;;;;;;4942259;28;20046;-55
2021/07/16 10:47:39;;;;;;;68.80;37.55;;;;;;;;;;4941295;28;20456;-54
2021/07/16 10:50:09;;;;;;;63.20;36.22;;;;;;;;;;4975696;28;20106;-54
2021/07/16 10:52:46;;;;;;;70.10;36.78;;;;;;;;;;5011172;28;20135;-55
2021/07/16 10:55:13;;;;;;;65.00;37.03;;;;;;;;;;5007849;28;20053;-54
2021/07/16 10:57:40;;;;;;;63.05;36.85;;;;;;;;;;5007621;28;22038;-54
2021/07/16 11:00:07;;;;;;;66.60;37.00;;;;;;;;;;5009598;28;20950;-55
2021/07/16 11:02:38;;;;;;;67.38;36.28;;;;;;;;;;5007953;28;20779;-56
2021/07/16 11:05:23;;;;;;;67.22;37.17;;;;;;;;;;5007309;28;20220;-54
2021/07/16 11:07:48;;;;;;;65.57;35.97;;;;;;;;;;5008574;28;20076;-55
2021/07/16 11:10:33;;;;;;;69.85;38.80;;;;;;;;;;5008794;28;20116;-51
2021/07/16 11:13:18;;;;;;;67.97;35.70;;;;;;;;;;5006725;28;20120;-55
2021/07/16 11:15:44;;;;;;;66.57;36.15;;;;;;;;;;5007905;28;20072;-56
2021/07/16 11:18:25;;;;;;;62.40;35.47;;;;;;;;;;5010978;28;20042;-57
2021/07/16 11:20:50;;;;;;;61.53;35.22;;;;;;;;;;5009590;28;20026;-57
2021/07/16 11:23:19;;;;;;;68.22;37.33;;;;;;;;;;5007814;28;20037;-58
2021/07/16 11:25:45;;;;;;;66.32;36.85;;;;;;;;;;5007014;28;20526;-57
2021/07/16 11:28:11;;;;;;;58.60;33.63;;;;;;;;;;5008562;28;20132;-58
2021/07/16 11:30:36;;;;;;;59.35;35.40;;;;;;;;;;5022718;28;20111;-58
2021/07/16 11:33:06;;;;;;;58.53;34.78;;;;;;;;;;5007817;28;20122;-58
2021/07/16 11:35:33;;;;;;;60.38;33.83;;;;;;;;;;5007483;28;20088;-57
2021/07/16 11:37:59;;;;;;;63.28;33.78;;;;;;;;;;5010324;28;20747;-56
2021/07/16 11:40:26;;;;;;;64.22;34.20;;;;;;;;;;5013025;28;20061;-54
2021/07/16 11:42:53;;;;;;;59.30;33.88;;;;;;;;;;5012171;28;20125;-55
2021/07/16 11:45:23;;;;;;;71.03;35.85;;;;;;;;;;5012190;28;20056;-56
2021/07/16 11:47:59;;;;;;;61.92;34.08;;;;;;;;;;5007884;28;20398;-55
2021/07/16 11:50:25;;;;;;;61.75;34.90;;;;;;;;;;5011701;28;20034;-55
2021/07/16 11:52:52;;;;;;;66.55;34.58;;;;;;;;;;5010418;28;20075;-56
2021/07/16 11:55:19;;;;;;;66.55;36.58;;;;;;;;;;5010764;28;20549;-56
2021/07/16 11:57:49;;;;;;;64.93;38.17;;;;;;;;;;5012129;28;20053;-57
2021/07/16 12:00:15;;;;;;;70.07;39.00;;;;;;;;;;5011748;28;20156;-55
2021/07/16 12:02:41;;;;;;;70.05;37.45;;;;;;;;;;5010974;28;20037;-55
2021/07/16 12:05:08;;;;;;;67.13;36.38;;;;;;;;;;5010478;28;20045;-56
2021/07/16 12:07:37;;;;;;;65.60;36.67;;;;;;;;;;5010265;28;20415;-56
2021/07/16 12:10:10;;;;;;;71.38;37.45;;;;;;;;;;5012926;28;20059;-56
2021/07/16 12:12:37;;;;;;;59.10;37.35;;;;;;;;;;5010817;28;20184;-55
2021/07/16 12:15:05;;;;;;;68.28;36.35;;;;;;;;;;5010467;28;20080;-56
2021/07/16 12:17:40;;;;;;;71.38;38.33;;;;;;;;;;5011386;28;20049;-55
2021/07/16 12:20:08;;;;;;;70.78;38.08;;;;;;;;;;5013677;28;20048;-56
2021/07/16 12:22:34;;;;;;;71.68;40.35;;;;;;;;;;5010852;28;20410;-56
2021/07/16 12:25:02;;;;;;;74.50;40.78;;;;;;;;;;5011493;28;20033;-55
2021/07/16 12:27:28;;;;;;;66.70;40.28;;;;;;;;;;5010991;28;20073;-56
2021/07/16 12:29:57;;;;;;;71.85;40.53;;;;;;;;;;5010193;28;20125;-56
2021/07/16 12:32:32;;;;;;;72.78;41.35;;;;;;;;;;5009256;28;20038;-56
2021/07/16 12:34:58;;;;;;;68.45;38.47;;;;;;;;;;5010589;28;20077;-57
2021/07/16 12:37:23;;;;;;;69.78;37.60;;;;;;;;;;5009762;28;20137;-55
2021/07/16 12:40:00;;;;;;;60.17;35.20;;;;;;;;;;5012937;28;20037;-56
2021/07/16 12:42:26;;;;;;;64.25;35.65;;;;;;;;;;5008764;28;20103;-54
2021/07/16 12:45:03;;;;;;;60.88;34.25;;;;;;;;;;5010454;28;20038;-55
2021/07/16 12:47:28;;;;;;;60.63;34.67;;;;;;;;;;5010145;28;20303;-55
2021/07/16 12:50:07;;;;;;;56.85;33.95;;;;;;;;;;5010371;28;20045;-56
2021/07/16 12:52:33;;;;;;;63.05;32.53;;;;;;;;;;5009949;28;20492;-56
2021/07/16 12:55:16;;;;;;;60.33;32.65;;;;;;;;;;5009797;28;20064;-54
2021/07/16 12:57:42;;;;;;;51.35;31.20;;;;;;;;;;5009798;28;20086;-55
2021/07/16 13:00:16;;;;;;;51.28;32.15;;;;;;;;;;5009817;28;20092;-56
2021/07/16 13:02:47;;;;;;;64.45;34.75;;;;;;;;;;5007857;28;20057;-56
2021/07/16 13:05:25;;;;;;;52.70;31.65;;;;;;;;;;5011116;28;20444;-56
2021/07/16 13:07:51;;;;;;;60.80;32.83;;;;;;;;;;5009970;28;20038;-55
2021/07/16 13:10:22;;;;;;;56.30;31.85;;;;;;;;;;5009229;28;20046;-55
2021/07/16 13:12:47;;;;;;;60.30;32.00;;;;;;;;;;5008882;28;20033;-56
2021/07/16 13:15:13;;;;;;;54.33;32.22;;;;;;;;;;5011164;28;20534;-56
2021/07/16 13:17:39;;;;;;;57.55;33.08;;;;;;;;;;5009160;28;20757;-55
2021/07/16 13:20:07;;;;;;;58.45;32.15;;;;;;;;;;5010838;28;20052;-56
2021/07/16 13:22:34;;;;;;;56.10;32.17;;;;;;;;;;5008585;28;20049;-56
2021/07/16 13:25:00;;;;;;;58.33;31.88;;;;;;;;;;5008937;28;20041;-55
2021/07/16 13:27:26;;;;;;;55.50;31.27;;;;;;;;;;5009459;28;20161;-55
2021/07/16 13:29:53;;;;;;;54.13;31.48;;;;;;;;;;5009128;28;20040;-54
2021/07/16 13:32:19;;;;;;;60.83;31.48;;;;;;;;;;5007884;28;20092;-54
2021/07/16 13:34:45;;;;;;;56.80;31.88;;;;;;;;;;5008588;28;20049;-55
2021/07/16 13:37:11;;;;;;;57.03;30.73;;;;;;;;;;5012203;28;20127;-54
2021/07/16 13:39:37;;;;;;;52.15;30.60;;;;;;;;;;5009183;28;20045;-56
2021/07/16 13:42:03;;;;;;;51.92;30.00;;;;;;;;;;5008475;28;20638;-55
2021/07/16 13:44:28;;;;;;;50.17;29.65;;;;;;;;;;5007693;28;20514;-55
2021/07/16 13:46:54;;;;;;;49.85;29.45;;;;;;;;;;5008876;28;20183;-54
2021/07/16 13:49:20;;;;;;;52.15;30.27;;;;;;;;;;5009235;28;20510;-55
2021/07/16 13:51:46;;;;;;;53.53;28.50;;;;;;;;;;5009056;28;20048;-54
2021/07/16 13:54:12;;;;;;;53.53;30.95;;;;;;;;;;5009531;28;20053;-55
2021/07/16 13:56:42;;;;;;;47.90;29.02;;;;;;;;;;5016517;28;20123;-56
2021/07/16 13:59:07;;;;;;;46.05;27.73;;;;;;;;;;5009733;28;20091;-54
2021/07/16 14:01:33;;;;;;;49.88;28.83;;;;;;;;;;5009309;28;20044;-55
2021/07/16 14:03:59;;;;;;;51.80;29.50;;;;;;;;;;5008606;28;20842;-52
2021/07/16 14:06:25;;;;;;;48.42;28.02;;;;;;;;;;5010812;28;20038;-54
2021/07/16 14:08:51;;;;;;;47.72;27.88;;;;;;;;;;5010172;28;20044;-54
2021/07/16 14:11:17;;;;;;;51.40;28.92;;;;;;;;;;5009439;28;20038;-54
2021/07/16 14:13:42;;;;;;;51.95;28.73;;;;;;;;;;5007539;28;22240;-54
2021/07/16 14:16:08;;;;;;;51.45;27.60;;;;;;;;;;5009329;28;20061;-56
2021/07/16 14:18:34;;;;;;;44.17;25.95;;;;;;;;;;5008668;28;20052;-56